sensor_id;sensor_type;location;lat;lon;timestamp;pressure;altitude;pressure_sealevel;temperature;humidity
76108;BME280;64834;52.516;10.528;2023-07-22T00:00:39;100574.31;;;13.47;86.67
76108;BME280;64834;52.516;10.528;2023-07-22T00:03:04;100574.41;;;13.50;86.10
76108;BME280;64834;52.516;10.528;2023-07-22T00:05:29;100574.41;;;13.50;85.80
76108;BME280;64834;52.516;10.528;2023-07-22T00:07:54;100572.13;;;13.37;86.92
76108;BME280;64834;52.516;10.528;2023-07-22T00:10:20;100566.59;;;13.31;86.96
76108;BME280;64834;52.516;10.528;2023-07-22T00:12:45;100563.91;;;13.29;87.23
76108;BME280;64834;52.516;10.528;2023-07-22T00:15:10;100566.16;;;13.41;86.37
76108;BME280;64834;52.516;10.528;2023-07-22T00:17:40;100564.38;;;13.40;87.27
76108;BME280;64834;52.516;10.528;2023-07-22T00:20:07;100570.13;;;13.31;87.46
76108;BME280;64834;52.516;10.528;2023-07-22T00:22:36;100569.94;;;13.27;88.05
76108;BME280;64834;52.516;10.528;2023-07-22T00:25:01;100578.72;;;13.27;87.76
76108;BME280;64834;52.516;10.528;2023-07-22T00:27:27;100570.91;;;13.29;87.88
76108;BME280;64834;52.516;10.528;2023-07-22T00:29:52;100579.41;;;13.23;88.48
76108;BME280;64834;52.516;10.528;2023-07-22T00:32:17;100578.16;;;13.15;89.03
76108;BME280;64834;52.516;10.528;2023-07-22T00:34:43;100579.91;;;13.14;89.21
76108;BME280;64834;52.516;10.528;2023-07-22T00:37:08;100592.41;;;13.20;89.14
76108;BME280;64834;52.516;10.528;2023-07-22T00:39:33;100585.97;;;13.13;89.46
76108;BME280;64834;52.516;10.528;2023-07-22T00:41:59;100581.47;;;13.11;89.50
76108;BME280;64834;52.516;10.528;2023-07-22T00:44:25;100578.78;;;13.09;89.67
76108;BME280;64834;52.516;10.528;2023-07-22T00:46:53;100576.09;;;13.08;89.61
76108;BME280;64834;52.516;10.528;2023-07-22T00:49:19;100582.69;;;12.98;90.55
76108;BME280;64834;52.516;10.528;2023-07-22T00:51:45;100580.81;;;12.95;90.75
76108;BME280;64834;52.516;10.528;2023-07-22T00:54:10;100576.03;;;12.87;91.27
76108;BME280;64834;52.516;10.528;2023-07-22T00:56:36;100578.41;;;12.81;91.56
76108;BME280;64834;52.516;10.528;2023-07-22T00:59:02;100573.16;;;12.81;91.78
76108;BME280;64834;52.516;10.528;2023-07-22T01:01:27;100578.88;;;12.91;90.96
76108;BME280;64834;52.516;10.528;2023-07-22T01:03:53;100575.31;;;12.89;90.70
76108;BME280;64834;52.516;10.528;2023-07-22T01:06:19;100573.91;;;12.78;91.37
76108;BME280;64834;52.516;10.528;2023-07-22T01:08:45;100573.91;;;12.78;91.60
76108;BME280;64834;52.516;10.528;2023-07-22T01:11:11;100575.50;;;12.75;91.36
76108;BME280;64834;52.516;10.528;2023-07-22T01:13:38;100573.03;;;12.78;90.97
76108;BME280;64834;52.516;10.528;2023-07-22T01:16:05;100576.06;;;12.67;91.26
76108;BME280;64834;52.516;10.528;2023-07-22T01:18:31;100577.16;;;12.73;91.14
76108;BME280;64834;52.516;10.528;2023-07-22T01:20:56;100578.63;;;12.66;91.80
76108;BME280;64834;52.516;10.528;2023-07-22T01:23:22;100578.69;;;12.67;91.97
76108;BME280;64834;52.516;10.528;2023-07-22T01:25:47;100577.72;;;12.65;91.76
76108;BME280;64834;52.516;10.528;2023-07-22T01:28:13;100581.09;;;12.63;91.66
76108;BME280;64834;52.516;10.528;2023-07-22T01:30:38;100580.19;;;12.62;91.58
76108;BME280;64834;52.516;10.528;2023-07-22T01:33:05;100589.63;;;12.57;92.07
76108;BME280;64834;52.516;10.528;2023-07-22T01:35:30;100584.63;;;12.63;91.73
76108;BME280;64834;52.516;10.528;2023-07-22T01:37:55;100584.25;;;12.56;91.99
76108;BME280;64834;52.516;10.528;2023-07-22T01:40:20;100576.09;;;12.50;92.00
76108;BME280;64834;52.516;10.528;2023-07-22T01:42:48;100586.00;;;12.55;91.72
76108;BME280;64834;52.516;10.528;2023-07-22T01:45:13;100589.78;;;12.42;92.26
76108;BME280;64834;52.516;10.528;2023-07-22T01:47:39;100587.50;;;12.50;91.74
76108;BME280;64834;52.516;10.528;2023-07-22T01:50:08;100581.91;;;12.42;92.13
76108;BME280;64834;52.516;10.528;2023-07-22T01:52:33;100584.41;;;12.39;91.73
76108;BME280;64834;52.516;10.528;2023-07-22T01:54:59;100581.69;;;12.38;91.84
76108;BME280;64834;52.516;10.528;2023-07-22T01:57:24;100588.00;;;12.41;91.27
76108;BME280;64834;52.516;10.528;2023-07-22T01:59:50;100590.09;;;12.31;92.03
76108;BME280;64834;52.516;10.528;2023-07-22T02:02:15;100595.22;;;12.28;91.84
76108;BME280;64834;52.516;10.528;2023-07-22T02:04:40;100591.19;;;12.17;93.18
76108;BME280;64834;52.516;10.528;2023-07-22T02:07:06;100596.16;;;12.10;93.12
76108;BME280;64834;52.516;10.528;2023-07-22T02:09:32;100599.00;;;12.15;93.01
76108;BME280;64834;52.516;10.528;2023-07-22T02:11:58;100596.50;;;12.18;92.36
76108;BME280;64834;52.516;10.528;2023-07-22T02:14:23;100596.97;;;12.09;92.67
76108;BME280;64834;52.516;10.528;2023-07-22T02:16:48;100597.81;;;12.08;92.74
76108;BME280;64834;52.516;10.528;2023-07-22T02:19:14;100591.50;;;12.05;92.88
76108;BME280;64834;52.516;10.528;2023-07-22T02:21:40;100593.41;;;12.07;93.02
76108;BME280;64834;52.516;10.528;2023-07-22T02:24:05;100600.50;;;12.10;92.15
76108;BME280;64834;52.516;10.528;2023-07-22T02:26:31;100601.16;;;12.06;92.55
76108;BME280;64834;52.516;10.528;2023-07-22T02:28:56;100601.09;;;12.04;93.06
76108;BME280;64834;52.516;10.528;2023-07-22T02:31:21;100611.59;;;11.86;93.53
76108;BME280;64834;52.516;10.528;2023-07-22T02:33:47;100606.50;;;11.90;93.54
76108;BME280;64834;52.516;10.528;2023-07-22T02:36:13;100597.66;;;11.87;93.37
76108;BME280;64834;52.516;10.528;2023-07-22T02:38:39;100598.13;;;11.97;93.64
76108;BME280;64834;52.516;10.528;2023-07-22T02:41:05;100609.13;;;11.90;93.70
76108;BME280;64834;52.516;10.528;2023-07-22T02:43:33;100603.88;;;11.90;93.17
76108;BME280;64834;52.516;10.528;2023-07-22T02:46:02;100609.66;;;11.82;93.86
76108;BME280;64834;52.516;10.528;2023-07-22T02:48:29;100607.72;;;11.80;93.95
76108;BME280;64834;52.516;10.528;2023-07-22T02:50:54;100612.47;;;11.87;93.49
76108;BME280;64834;52.516;10.528;2023-07-22T02:53:20;100614.41;;;11.73;94.44
76108;BME280;64834;52.516;10.528;2023-07-22T02:55:46;100613.38;;;11.70;94.64
76108;BME280;64834;52.516;10.528;2023-07-22T02:58:12;100612.38;;;11.68;94.80
76108;BME280;64834;52.516;10.528;2023-07-22T03:00:37;100607.59;;;11.59;95.17
76108;BME280;64834;52.516;10.528;2023-07-22T03:03:02;100607.72;;;11.62;95.11
76108;BME280;64834;52.516;10.528;2023-07-22T03:05:30;100609.63;;;11.65;94.63
76108;BME280;64834;52.516;10.528;2023-07-22T03:07:57;100617.53;;;11.66;95.39
76108;BME280;64834;52.516;10.528;2023-07-22T03:10:22;100618.97;;;11.59;95.44
76108;BME280;64834;52.516;10.528;2023-07-22T03:12:48;100613.72;;;11.59;95.06
76108;BME280;64834;52.516;10.528;2023-07-22T03:15:13;100613.56;;;11.56;95.13
76108;BME280;64834;52.516;10.528;2023-07-22T03:17:39;100623.91;;;11.53;94.93
76108;BME280;64834;52.516;10.528;2023-07-22T03:20:08;100620.31;;;11.51;95.11
76108;BME280;64834;52.516;10.528;2023-07-22T03:22:40;100620.50;;;11.56;95.07
76108;BME280;64834;52.516;10.528;2023-07-22T03:25:05;100622.38;;;11.41;96.63
76108;BME280;64834;52.516;10.528;2023-07-22T03:27:34;100630.56;;;11.47;96.75
76108;BME280;64834;52.516;10.528;2023-07-22T03:30:00;100625.13;;;11.44;95.81
76108;BME280;64834;52.516;10.528;2023-07-22T03:32:26;100620.97;;;11.47;95.88
76108;BME280;64834;52.516;10.528;2023-07-22T03:34:51;100626.66;;;11.56;95.39
76108;BME280;64834;52.516;10.528;2023-07-22T03:37:17;100638.88;;;11.56;95.01
76108;BME280;64834;52.516;10.528;2023-07-22T03:39:42;100633.31;;;11.50;95.56
76108;BME280;64834;52.516;10.528;2023-07-22T03:42:08;100637.50;;;11.46;95.89
76108;BME280;64834;52.516;10.528;2023-07-22T03:44:33;100649.53;;;11.43;96.91
76108;BME280;64834;52.516;10.528;2023-07-22T03:46:59;100650.44;;;11.43;95.92
76108;BME280;64834;52.516;10.528;2023-07-22T03:49:25;100653.97;;;11.44;95.96
76108;BME280;64834;52.516;10.528;2023-07-22T03:51:50;100652.03;;;11.40;96.42
76108;BME280;64834;52.516;10.528;2023-07-22T03:54:15;100650.81;;;11.33;96.52
76108;BME280;64834;52.516;10.528;2023-07-22T03:56:41;100650.13;;;11.37;97.00
76108;BME280;64834;52.516;10.528;2023-07-22T03:59:06;100649.81;;;11.31;96.68
76108;BME280;64834;52.516;10.528;2023-07-22T04:01:32;100649.34;;;11.38;97.81
76108;BME280;64834;52.516;10.528;2023-07-22T04:03:57;100654.44;;;11.87;94.81
76108;BME280;64834;52.516;10.528;2023-07-22T04:06:22;100648.88;;;12.34;92.01
76108;BME280;64834;52.516;10.528;2023-07-22T04:08:48;100648.13;;;12.93;89.27
76108;BME280;64834;52.516;10.528;2023-07-22T04:11:13;100647.66;;;13.02;87.52
76108;BME280;64834;52.516;10.528;2023-07-22T04:13:39;100654.47;;;12.79;88.30
76108;BME280;64834;52.516;10.528;2023-07-22T04:16:04;100647.53;;;12.42;90.74
76108;BME280;64834;52.516;10.528;2023-07-22T04:18:30;100650.84;;;12.21;92.30
76108;BME280;64834;52.516;10.528;2023-07-22T04:21:00;100659.38;;;11.99;94.54
76108;BME280;64834;52.516;10.528;2023-07-22T04:23:26;100654.31;;;12.02;94.59
76108;BME280;64834;52.516;10.528;2023-07-22T04:25:51;100654.16;;;11.99;95.07
76108;BME280;64834;52.516;10.528;2023-07-22T04:28:17;100649.81;;;11.99;95.20
76108;BME280;64834;52.516;10.528;2023-07-22T04:30:42;100650.94;;;12.04;95.36
76108;BME280;64834;52.516;10.528;2023-07-22T04:33:08;100647.84;;;12.13;95.05
76108;BME280;64834;52.516;10.528;2023-07-22T04:35:40;100651.69;;;12.20;94.74
76108;BME280;64834;52.516;10.528;2023-07-22T04:38:06;100652.72;;;12.23;94.85
76108;BME280;64834;52.516;10.528;2023-07-22T04:40:32;100645.81;;;12.25;94.67
76108;BME280;64834;52.516;10.528;2023-07-22T04:42:57;100652.47;;;12.36;94.37
76108;BME280;64834;52.516;10.528;2023-07-22T04:45:23;100657.13;;;12.42;94.46
76108;BME280;64834;52.516;10.528;2023-07-22T04:47:51;100663.84;;;12.55;94.22
76108;BME280;64834;52.516;10.528;2023-07-22T04:50:17;100667.94;;;12.67;93.44
76108;BME280;64834;52.516;10.528;2023-07-22T04:52:45;100662.31;;;12.78;93.17
76108;BME280;64834;52.516;10.528;2023-07-22T04:55:11;100663.13;;;12.77;93.03
76108;BME280;64834;52.516;10.528;2023-07-22T04:57:38;100668.78;;;12.86;92.42
76108;BME280;64834;52.516;10.528;2023-07-22T05:00:04;100668.25;;;12.93;92.18
76108;BME280;64834;52.516;10.528;2023-07-22T05:02:30;100673.09;;;13.03;92.35
76108;BME280;64834;52.516;10.528;2023-07-22T05:04:56;100670.19;;;13.16;91.20
76108;BME280;64834;52.516;10.528;2023-07-22T05:07:21;100669.03;;;13.29;90.63
76108;BME280;64834;52.516;10.528;2023-07-22T05:09:47;100670.09;;;13.33;90.13
76108;BME280;64834;52.516;10.528;2023-07-22T05:12:12;100674.88;;;13.43;89.71
76108;BME280;64834;52.516;10.528;2023-07-22T05:14:37;100658.81;;;13.56;89.27
76108;BME280;64834;52.516;10.528;2023-07-22T05:17:03;100668.63;;;13.60;89.11
76108;BME280;64834;52.516;10.528;2023-07-22T05:19:28;100672.00;;;13.77;87.97
76108;BME280;64834;52.516;10.528;2023-07-22T05:21:53;100677.16;;;13.75;87.94
76108;BME280;64834;52.516;10.528;2023-07-22T05:24:19;100680.88;;;13.81;87.65
76108;BME280;64834;52.516;10.528;2023-07-22T05:26:46;100679.56;;;13.90;86.71
76108;BME280;64834;52.516;10.528;2023-07-22T05:29:11;100686.63;;;13.91;86.02
76108;BME280;64834;52.516;10.528;2023-07-22T05:31:36;100680.78;;;13.98;84.92
76108;BME280;64834;52.516;10.528;2023-07-22T05:34:02;100680.56;;;13.94;85.38
76108;BME280;64834;52.516;10.528;2023-07-22T05:36:29;100687.22;;;14.07;84.99
76108;BME280;64834;52.516;10.528;2023-07-22T05:38:54;100681.06;;;14.06;84.12
76108;BME280;64834;52.516;10.528;2023-07-22T05:41:19;100686.59;;;14.12;83.64
76108;BME280;64834;52.516;10.528;2023-07-22T05:43:45;100688.28;;;14.10;83.71
76108;BME280;64834;52.516;10.528;2023-07-22T05:46:10;100685.16;;;14.20;83.02
76108;BME280;64834;52.516;10.528;2023-07-22T05:48:35;100699.38;;;14.03;83.16
76108;BME280;64834;52.516;10.528;2023-07-22T05:51:01;100699.91;;;14.15;82.53
76108;BME280;64834;52.516;10.528;2023-07-22T05:53:26;100699.84;;;14.36;82.19
76108;BME280;64834;52.516;10.528;2023-07-22T05:55:51;100700.50;;;14.51;81.15
76108;BME280;64834;52.516;10.528;2023-07-22T05:58:17;100707.75;;;14.57;81.03
76108;BME280;64834;52.516;10.528;2023-07-22T06:00:43;100708.97;;;14.65;80.94
76108;BME280;64834;52.516;10.528;2023-07-22T06:03:08;100711.00;;;14.72;80.02
76108;BME280;64834;52.516;10.528;2023-07-22T06:05:34;100715.38;;;14.72;79.76
76108;BME280;64834;52.516;10.528;2023-07-22T06:07:59;100715.13;;;14.66;79.78
76108;BME280;64834;52.516;10.528;2023-07-22T06:10:25;100718.09;;;14.75;80.09
76108;BME280;64834;52.516;10.528;2023-07-22T06:12:50;100727.31;;;14.86;79.03
76108;BME280;64834;52.516;10.528;2023-07-22T06:15:15;100715.72;;;15.03;78.68
76108;BME280;64834;52.516;10.528;2023-07-22T06:17:41;100723.72;;;15.06;77.20
76108;BME280;64834;52.516;10.528;2023-07-22T06:20:06;100731.81;;;15.11;77.90
76108;BME280;64834;52.516;10.528;2023-07-22T06:22:32;100735.28;;;15.10;77.78
76108;BME280;64834;52.516;10.528;2023-07-22T06:24:58;100729.66;;;15.01;77.00
76108;BME280;64834;52.516;10.528;2023-07-22T06:27:23;100733.97;;;14.76;77.89
76108;BME280;64834;52.516;10.528;2023-07-22T06:29:48;100729.28;;;14.69;78.78
76108;BME280;64834;52.516;10.528;2023-07-22T06:32:13;100726.97;;;14.99;77.90
76108;BME280;64834;52.516;10.528;2023-07-22T06:34:39;100730.00;;;15.10;77.05
76108;BME280;64834;52.516;10.528;2023-07-22T06:37:04;100723.66;;;15.05;76.55
76108;BME280;64834;52.516;10.528;2023-07-22T06:39:30;100722.16;;;15.11;76.98
76108;BME280;64834;52.516;10.528;2023-07-22T06:41:55;100724.00;;;15.38;75.90
76108;BME280;64834;52.516;10.528;2023-07-22T06:44:20;100727.00;;;15.47;75.22
76108;BME280;64834;52.516;10.528;2023-07-22T06:46:46;100721.72;;;15.47;75.53
76108;BME280;64834;52.516;10.528;2023-07-22T06:49:11;100730.47;;;15.70;74.62
76108;BME280;64834;52.516;10.528;2023-07-22T06:51:37;100723.31;;;16.17;73.00
76108;BME280;64834;52.516;10.528;2023-07-22T06:54:03;100725.00;;;15.89;72.84
76108;BME280;64834;52.516;10.528;2023-07-22T06:56:28;100724.16;;;15.90;72.38
76108;BME280;64834;52.516;10.528;2023-07-22T06:58:53;100722.22;;;16.37;71.98
76108;BME280;64834;52.516;10.528;2023-07-22T07:01:19;100724.63;;;16.58;70.97
76108;BME280;64834;52.516;10.528;2023-07-22T07:03:44;100720.25;;;16.32;71.10
76108;BME280;64834;52.516;10.528;2023-07-22T07:06:10;100725.28;;;16.51;70.83
76108;BME280;64834;52.516;10.528;2023-07-22T07:08:35;100720.81;;;16.76;69.86
76108;BME280;64834;52.516;10.528;2023-07-22T07:11:02;100724.44;;;16.52;69.57
76108;BME280;64834;52.516;10.528;2023-07-22T07:13:27;100717.31;;;16.50;70.44
76108;BME280;64834;52.516;10.528;2023-07-22T07:15:54;100725.47;;;16.29;70.11
76108;BME280;64834;52.516;10.528;2023-07-22T07:18:19;100723.00;;;16.62;69.80
76108;BME280;64834;52.516;10.528;2023-07-22T07:20:45;100721.13;;;16.85;68.41
76108;BME280;64834;52.516;10.528;2023-07-22T07:23:10;100731.13;;;16.68;68.82
76108;BME280;64834;52.516;10.528;2023-07-22T07:25:36;100725.59;;;16.60;68.97
76108;BME280;64834;52.516;10.528;2023-07-22T07:28:01;100722.19;;;16.91;68.04
76108;BME280;64834;52.516;10.528;2023-07-22T07:30:26;100721.16;;;16.86;66.73
76108;BME280;64834;52.516;10.528;2023-07-22T07:32:52;100725.41;;;16.81;67.55
76108;BME280;64834;52.516;10.528;2023-07-22T07:35:17;100725.09;;;17.01;67.27
76108;BME280;64834;52.516;10.528;2023-07-22T07:37:42;100722.91;;;17.16;67.00
76108;BME280;64834;52.516;10.528;2023-07-22T07:40:08;100732.28;;;17.05;66.43
76108;BME280;64834;52.516;10.528;2023-07-22T07:42:33;100733.47;;;17.46;64.84
76108;BME280;64834;52.516;10.528;2023-07-22T07:44:59;100733.47;;;17.46;63.83
76108;BME280;64834;52.516;10.528;2023-07-22T07:47:24;100731.91;;;17.84;62.86
76108;BME280;64834;52.516;10.528;2023-07-22T07:49:50;100729.97;;;17.47;63.62
76108;BME280;64834;52.516;10.528;2023-07-22T07:52:15;100737.50;;;17.33;65.76
76108;BME280;64834;52.516;10.528;2023-07-22T07:54:41;100740.06;;;17.60;64.92
76108;BME280;64834;52.516;10.528;2023-07-22T07:57:06;100741.97;;;17.66;63.57
76108;BME280;64834;52.516;10.528;2023-07-22T07:59:31;100741.47;;;17.17;64.43
76108;BME280;64834;52.516;10.528;2023-07-22T08:01:57;100738.41;;;17.34;63.98
76108;BME280;64834;52.516;10.528;2023-07-22T08:04:22;100742.72;;;17.30;63.77
76108;BME280;64834;52.516;10.528;2023-07-22T08:06:49;100752.38;;;17.60;62.73
76108;BME280;64834;52.516;10.528;2023-07-22T08:09:14;100754.56;;;17.43;63.07
76108;BME280;64834;52.516;10.528;2023-07-22T08:11:44;100758.72;;;17.35;63.49
76108;BME280;64834;52.516;10.528;2023-07-22T08:14:09;100755.13;;;17.63;62.64
76108;BME280;64834;52.516;10.528;2023-07-22T08:16:35;100751.13;;;17.77;62.72
76108;BME280;64834;52.516;10.528;2023-07-22T08:19:00;100741.91;;;17.63;61.66
76108;BME280;64834;52.516;10.528;2023-07-22T08:21:25;100750.22;;;17.75;61.30
76108;BME280;64834;52.516;10.528;2023-07-22T08:23:51;100751.47;;;17.59;61.80
76108;BME280;64834;52.516;10.528;2023-07-22T08:26:16;100751.41;;;17.26;62.67
76108;BME280;64834;52.516;10.528;2023-07-22T08:28:46;100750.66;;;17.00;63.43
76108;BME280;64834;52.516;10.528;2023-07-22T08:31:11;100752.84;;;17.75;61.75
76108;BME280;64834;52.516;10.528;2023-07-22T08:33:37;100749.31;;;17.74;61.14
76108;BME280;64834;52.516;10.528;2023-07-22T08:36:02;100753.66;;;17.72;59.97
76108;BME280;64834;52.516;10.528;2023-07-22T08:38:27;100754.63;;;17.76;60.36
76108;BME280;64834;52.516;10.528;2023-07-22T08:40:53;100759.06;;;17.77;60.48
76108;BME280;64834;52.516;10.528;2023-07-22T08:43:22;100755.59;;;18.11;59.29
76108;BME280;64834;52.516;10.528;2023-07-22T08:45:52;100755.44;;;18.76;57.36
76108;BME280;64834;52.516;10.528;2023-07-22T08:48:18;100754.28;;;18.66;58.29
76108;BME280;64834;52.516;10.528;2023-07-22T08:50:53;100754.84;;;18.53;57.72
76108;BME280;64834;52.516;10.528;2023-07-22T08:53:19;100750.41;;;18.50;56.64
76108;BME280;64834;52.516;10.528;2023-07-22T08:55:45;100748.50;;;18.46;56.02
76108;BME280;64834;52.516;10.528;2023-07-22T08:58:11;100751.91;;;18.75;55.74
76108;BME280;64834;52.516;10.528;2023-07-22T09:00:38;100757.50;;;18.53;57.04
76108;BME280;64834;52.516;10.528;2023-07-22T09:03:04;100752.19;;;18.51;56.86
76108;BME280;64834;52.516;10.528;2023-07-22T09:05:31;100756.31;;;18.75;55.46
76108;BME280;64834;52.516;10.528;2023-07-22T09:07:57;100755.31;;;19.09;54.06
76108;BME280;64834;52.516;10.528;2023-07-22T09:10:24;100744.22;;;19.27;54.08
76108;BME280;64834;52.516;10.528;2023-07-22T09:12:51;100747.47;;;19.13;54.11
76108;BME280;64834;52.516;10.528;2023-07-22T09:15:17;100752.19;;;19.69;54.30
76108;BME280;64834;52.516;10.528;2023-07-22T09:17:44;100749.59;;;19.30;54.13
76108;BME280;64834;52.516;10.528;2023-07-22T09:20:12;100741.91;;;18.65;54.81
76108;BME280;64834;52.516;10.528;2023-07-22T09:22:43;100743.88;;;19.11;54.52
76108;BME280;64834;52.516;10.528;2023-07-22T09:25:26;100754.56;;;19.14;54.64
76108;BME280;64834;52.516;10.528;2023-07-22T09:27:54;100742.31;;;18.80;55.26
76108;BME280;64834;52.516;10.528;2023-07-22T09:30:36;100749.47;;;18.48;55.54
76108;BME280;64834;52.516;10.528;2023-07-22T09:33:05;100749.59;;;18.91;55.00
76108;BME280;64834;52.516;10.528;2023-07-22T09:35:43;100750.31;;;18.83;54.61
76108;BME280;64834;52.516;10.528;2023-07-22T09:38:09;100749.69;;;18.94;55.28
76108;BME280;64834;52.516;10.528;2023-07-22T09:40:34;100749.91;;;19.04;55.38
76108;BME280;64834;52.516;10.528;2023-07-22T09:43:03;100741.84;;;19.00;54.87
76108;BME280;64834;52.516;10.528;2023-07-22T09:45:30;100737.94;;;18.82;54.04
76108;BME280;64834;52.516;10.528;2023-07-22T09:47:56;100737.09;;;19.24;53.19
76108;BME280;64834;52.516;10.528;2023-07-22T09:50:24;100736.38;;;19.33;52.66
76108;BME280;64834;52.516;10.528;2023-07-22T09:52:52;100748.97;;;19.02;53.54
76108;BME280;64834;52.516;10.528;2023-07-22T09:55:20;100737.84;;;19.19;53.29
76108;BME280;64834;52.516;10.528;2023-07-22T09:57:49;100746.22;;;19.38;53.23
76108;BME280;64834;52.516;10.528;2023-07-22T10:00:16;100749.28;;;19.16;53.94
76108;BME280;64834;52.516;10.528;2023-07-22T10:02:43;100742.78;;;19.02;54.65
76108;BME280;64834;52.516;10.528;2023-07-22T10:05:18;100741.91;;;19.03;54.02
76108;BME280;64834;52.516;10.528;2023-07-22T10:07:49;100741.28;;;18.74;54.73
76108;BME280;64834;52.516;10.528;2023-07-22T10:10:16;100742.06;;;18.70;55.25
76108;BME280;64834;52.516;10.528;2023-07-22T10:12:43;100738.03;;;18.51;55.92
76108;BME280;64834;52.516;10.528;2023-07-22T10:15:10;100744.94;;;18.44;57.11
76108;BME280;64834;52.516;10.528;2023-07-22T10:17:36;100736.41;;;18.56;56.94
76108;BME280;64834;52.516;10.528;2023-07-22T10:20:02;100737.25;;;19.32;56.79
76108;BME280;64834;52.516;10.528;2023-07-22T10:22:35;100735.88;;;19.98;53.90
76108;BME280;64834;52.516;10.528;2023-07-22T10:25:04;100730.69;;;20.55;51.39
76108;BME280;64834;52.516;10.528;2023-07-22T10:27:30;100723.97;;;20.80;51.48
76108;BME280;64834;52.516;10.528;2023-07-22T10:29:56;100725.22;;;20.46;50.86
76108;BME280;64834;52.516;10.528;2023-07-22T10:32:21;100719.81;;;20.41;50.94
76108;BME280;64834;52.516;10.528;2023-07-22T10:34:46;100717.97;;;20.37;51.65
76108;BME280;64834;52.516;10.528;2023-07-22T10:37:12;100722.03;;;20.68;52.00
76108;BME280;64834;52.516;10.528;2023-07-22T10:39:37;100723.03;;;20.75;50.50
76108;BME280;64834;52.516;10.528;2023-07-22T10:42:03;100720.09;;;20.57;50.07
76108;BME280;64834;52.516;10.528;2023-07-22T10:44:38;100724.28;;;20.44;51.19
76108;BME280;64834;52.516;10.528;2023-07-22T10:47:04;100731.56;;;20.54;51.49
76108;BME280;64834;52.516;10.528;2023-07-22T10:49:46;100727.91;;;21.08;52.24
76108;BME280;64834;52.516;10.528;2023-07-22T10:52:12;100711.56;;;21.47;50.13
76108;BME280;64834;52.516;10.528;2023-07-22T10:54:39;100717.38;;;21.17;51.22
76108;BME280;64834;52.516;10.528;2023-07-22T10:57:23;100723.06;;;20.78;51.72
76108;BME280;64834;52.516;10.528;2023-07-22T10:59:50;100710.34;;;20.56;51.84
76108;BME280;64834;52.516;10.528;2023-07-22T11:02:23;100721.13;;;20.13;51.32
76108;BME280;64834;52.516;10.528;2023-07-22T11:04:49;100716.41;;;19.97;52.40
76108;BME280;64834;52.516;10.528;2023-07-22T11:07:14;100719.69;;;19.82;53.30
76108;BME280;64834;52.516;10.528;2023-07-22T11:09:40;100717.59;;;19.66;54.29
76108;BME280;64834;52.516;10.528;2023-07-22T11:12:15;100726.16;;;19.10;55.13
76108;BME280;64834;52.516;10.528;2023-07-22T11:14:48;100734.50;;;18.86;56.18
76108;BME280;64834;52.516;10.528;2023-07-22T11:17:13;100732.81;;;18.92;57.75
76108;BME280;64834;52.516;10.528;2023-07-22T11:19:39;100728.66;;;19.03;59.26
76108;BME280;64834;52.516;10.528;2023-07-22T11:22:05;100731.31;;;19.03;58.37
76108;BME280;64834;52.516;10.528;2023-07-22T11:24:35;100724.84;;;19.31;58.52
76108;BME280;64834;52.516;10.528;2023-07-22T11:27:07;100710.63;;;19.29;58.07
76108;BME280;64834;52.516;10.528;2023-07-22T11:29:34;100699.56;;;19.50;58.09
76108;BME280;64834;52.516;10.528;2023-07-22T11:31:59;100712.66;;;19.86;57.18
76108;BME280;64834;52.516;10.528;2023-07-22T11:34:25;100699.75;;;20.07;55.09
76108;BME280;64834;52.516;10.528;2023-07-22T11:36:52;100702.41;;;20.06;54.34
76108;BME280;64834;52.516;10.528;2023-07-22T11:39:19;100694.34;;;20.01;54.78
76108;BME280;64834;52.516;10.528;2023-07-22T11:41:46;100702.44;;;20.09;55.02
76108;BME280;64834;52.516;10.528;2023-07-22T11:44:14;100693.44;;;19.99;55.34
76108;BME280;64834;52.516;10.528;2023-07-22T11:46:51;100692.50;;;19.97;55.34
76108;BME280;64834;52.516;10.528;2023-07-22T11:49:32;100689.94;;;20.03;55.23
76108;BME280;64834;52.516;10.528;2023-07-22T11:51:58;100687.28;;;20.03;55.60
76108;BME280;64834;52.516;10.528;2023-07-22T11:54:23;100698.81;;;19.57;56.79
76108;BME280;64834;52.516;10.528;2023-07-22T11:56:49;100687.28;;;19.55;57.10
76108;BME280;64834;52.516;10.528;2023-07-22T11:59:15;100687.59;;;19.70;57.16
76108;BME280;64834;52.516;10.528;2023-07-22T12:01:43;100689.41;;;19.73;57.79
76108;BME280;64834;52.516;10.528;2023-07-22T12:04:11;100691.59;;;19.95;57.47
76108;BME280;64834;52.516;10.528;2023-07-22T12:06:36;100701.53;;;19.60;57.89
76108;BME280;64834;52.516;10.528;2023-07-22T12:09:02;100699.91;;;19.66;58.65
76108;BME280;64834;52.516;10.528;2023-07-22T12:11:32;100695.22;;;20.00;57.33
76108;BME280;64834;52.516;10.528;2023-07-22T12:14:11;100694.16;;;20.43;55.99
76108;BME280;64834;52.516;10.528;2023-07-22T12:16:38;100691.13;;;20.77;50.78
76108;BME280;64834;52.516;10.528;2023-07-22T12:19:04;100691.13;;;20.20;51.25
76108;BME280;64834;52.516;10.528;2023-07-22T12:21:30;100681.56;;;20.32;52.81
76108;BME280;64834;52.516;10.528;2023-07-22T12:23:56;100683.56;;;20.45;51.63
76108;BME280;64834;52.516;10.528;2023-07-22T12:26:21;100679.41;;;20.09;54.52
76108;BME280;64834;52.516;10.528;2023-07-22T12:28:47;100677.09;;;20.29;54.33
76108;BME280;64834;52.516;10.528;2023-07-22T12:31:12;100680.16;;;19.99;53.91
76108;BME280;64834;52.516;10.528;2023-07-22T12:33:38;100681.91;;;19.53;55.92
76108;BME280;64834;52.516;10.528;2023-07-22T12:36:03;100679.81;;;19.35;56.97